sensor_id;sensor_type;location;lat;lon;timestamp;P1;durP1;ratioP1;P2;durP2;ratioP2
27303;SDS011;14791;52.392;13.092;2023-11-19T00:00:33;3.13;;;3.03;;
27303;SDS011;14791;52.392;13.092;2023-11-19T00:03:02;2.70;;;2.60;;
27303;SDS011;14791;52.392;13.092;2023-11-19T00:05:32;3.43;;;3.20;;
27303;SDS011;14791;52.392;13.092;2023-11-19T00:08:01;3.00;;;2.90;;
27303;SDS011;14791;52.392;13.092;2023-11-19T00:10:31;3.37;;;3.27;;
27303;SDS011;14791;52.392;13.092;2023-11-19T00:13:00;2.77;;;2.67;;
27303;SDS011;14791;52.392;13.092;2023-11-19T00:15:29;3.00;;;2.90;;
27303;SDS011;14791;52.392;13.092;2023-11-19T00:17:58;2.90;;;2.80;;
27303;SDS011;14791;52.392;13.092;2023-11-19T00:20:29;3.10;;;3.00;;
27303;SDS011;14791;52.392;13.092;2023-11-19T00:23:01;3.10;;;2.90;;
27303;SDS011;14791;52.392;13.092;2023-11-19T00:25:29;2.83;;;2.73;;
27303;SDS011;14791;52.392;13.092;2023-11-19T00:27:59;3.00;;;2.90;;
27303;SDS011;14791;52.392;13.092;2023-11-19T00:30:27;2.97;;;2.87;;
27303;SDS011;14791;52.392;13.092;2023-11-19T00:32:58;3.30;;;3.20;;
27303;SDS011;14791;52.392;13.092;2023-11-19T00:35:27;2.83;;;2.73;;
27303;SDS011;14791;52.392;13.092;2023-11-19T00:37:58;2.80;;;2.70;;
27303;SDS011;14791;52.392;13.092;2023-11-19T00:40:27;3.00;;;2.90;;
27303;SDS011;14791;52.392;13.092;2023-11-19T00:42:56;2.87;;;2.77;;
27303;SDS011;14791;52.392;13.092;2023-11-19T00:45:25;2.87;;;2.77;;
27303;SDS011;14791;52.392;13.092;2023-11-19T00:47:55;3.20;;;3.07;;
27303;SDS011;14791;52.392;13.092;2023-11-19T00:50:25;2.87;;;2.77;;
27303;SDS011;14791;52.392;13.092;2023-11-19T00:52:55;2.53;;;2.43;;
27303;SDS011;14791;52.392;13.092;2023-11-19T00:55:23;2.63;;;2.57;;
27303;SDS011;14791;52.392;13.092;2023-11-19T00:57:54;2.60;;;2.50;;
27303;SDS011;14791;52.392;13.092;2023-11-19T01:00:23;3.13;;;3.03;;
27303;SDS011;14791;52.392;13.092;2023-11-19T01:02:54;3.07;;;2.97;;
27303;SDS011;14791;52.392;13.092;2023-11-19T01:05:23;2.33;;;2.23;;
27303;SDS011;14791;52.392;13.092;2023-11-19T01:07:52;2.90;;;2.80;;
27303;SDS011;14791;52.392;13.092;2023-11-19T01:10:21;2.90;;;2.80;;
27303;SDS011;14791;52.392;13.092;2023-11-19T01:12:52;2.87;;;2.77;;
27303;SDS011;14791;52.392;13.092;2023-11-19T01:15:21;2.80;;;2.70;;
27303;SDS011;14791;52.392;13.092;2023-11-19T01:17:50;2.70;;;2.60;;
27303;SDS011;14791;52.392;13.092;2023-11-19T01:20:20;2.53;;;2.50;;
27303;SDS011;14791;52.392;13.092;2023-11-19T01:22:49;2.67;;;2.57;;
27303;SDS011;14791;52.392;13.092;2023-11-19T01:25:20;3.40;;;3.20;;
27303;SDS011;14791;52.392;13.092;2023-11-19T01:27:50;2.23;;;2.23;;
27303;SDS011;14791;52.392;13.092;2023-11-19T01:30:19;2.77;;;2.60;;
27303;SDS011;14791;52.392;13.092;2023-11-19T01:32:49;2.90;;;2.80;;
27303;SDS011;14791;52.392;13.092;2023-11-19T01:35:18;2.83;;;2.73;;
27303;SDS011;14791;52.392;13.092;2023-11-19T01:37:47;3.17;;;2.97;;
27303;SDS011;14791;52.392;13.092;2023-11-19T01:40:20;3.00;;;2.87;;
27303;SDS011;14791;52.392;13.092;2023-11-19T01:42:48;2.80;;;2.70;;
27303;SDS011;14791;52.392;13.092;2023-11-19T01:45:22;2.50;;;2.40;;
27303;SDS011;14791;52.392;13.092;2023-11-19T01:47:57;2.20;;;2.20;;
27303;SDS011;14791;52.392;13.092;2023-11-19T01:50:32;2.60;;;2.50;;
27303;SDS011;14791;52.392;13.092;2023-11-19T01:53:02;2.67;;;2.57;;
27303;SDS011;14791;52.392;13.092;2023-11-19T01:55:33;2.70;;;2.60;;
27303;SDS011;14791;52.392;13.092;2023-11-19T01:58:02;3.00;;;2.90;;
27303;SDS011;14791;52.392;13.092;2023-11-19T02:00:31;2.97;;;2.87;;
27303;SDS011;14791;52.392;13.092;2023-11-19T02:03:00;3.50;;;3.30;;
27303;SDS011;14791;52.392;13.092;2023-11-19T02:05:30;3.43;;;2.73;;
27303;SDS011;14791;52.392;13.092;2023-11-19T02:08:01;2.70;;;2.60;;
27303;SDS011;14791;52.392;13.092;2023-11-19T02:10:30;2.97;;;2.83;;
27303;SDS011;14791;52.392;13.092;2023-11-19T02:13:00;2.20;;;2.20;;
27303;SDS011;14791;52.392;13.092;2023-11-19T02:15:31;2.47;;;2.37;;
27303;SDS011;14791;52.392;13.092;2023-11-19T02:20:54;2.63;;;2.53;;
27303;SDS011;14791;52.392;13.092;2023-11-19T02:23:26;2.80;;;2.70;;
27303;SDS011;14791;52.392;13.092;2023-11-19T02:28:36;2.40;;;2.40;;
27303;SDS011;14791;52.392;13.092;2023-11-19T02:31:05;2.17;;;2.10;;
27303;SDS011;14791;52.392;13.092;2023-11-19T02:33:36;2.00;;;2.00;;
27303;SDS011;14791;52.392;13.092;2023-11-19T02:36:06;2.17;;;2.17;;
27303;SDS011;14791;52.392;13.092;2023-11-19T02:38:36;2.43;;;2.33;;
27303;SDS011;14791;52.392;13.092;2023-11-19T02:41:07;2.50;;;2.40;;
27303;SDS011;14791;52.392;13.092;2023-11-19T02:43:37;2.20;;;2.20;;
27303;SDS011;14791;52.392;13.092;2023-11-19T02:46:06;2.40;;;2.30;;
27303;SDS011;14791;52.392;13.092;2023-11-19T02:48:37;2.30;;;2.20;;
27303;SDS011;14791;52.392;13.092;2023-11-19T02:51:06;2.03;;;1.93;;
27303;SDS011;14791;52.392;13.092;2023-11-19T02:53:38;1.93;;;1.93;;
27303;SDS011;14791;52.392;13.092;2023-11-19T02:56:07;2.17;;;2.17;;
27303;SDS011;14791;52.392;13.092;2023-11-19T02:58:43;2.50;;;2.40;;
27303;SDS011;14791;52.392;13.092;2023-11-19T03:01:13;2.13;;;2.13;;
27303;SDS011;14791;52.392;13.092;2023-11-19T03:03:43;2.27;;;2.27;;
27303;SDS011;14791;52.392;13.092;2023-11-19T03:06:14;1.80;;;1.80;;
27303;SDS011;14791;52.392;13.092;2023-11-19T03:08:43;2.00;;;1.93;;
27303;SDS011;14791;52.392;13.092;2023-11-19T03:11:12;2.10;;;2.10;;
27303;SDS011;14791;52.392;13.092;2023-11-19T03:13:42;1.93;;;1.93;;
27303;SDS011;14791;52.392;13.092;2023-11-19T03:16:11;2.00;;;2.00;;
27303;SDS011;14791;52.392;13.092;2023-11-19T03:18:40;1.90;;;1.90;;
27303;SDS011;14791;52.392;13.092;2023-11-19T03:21:09;2.37;;;2.27;;
27303;SDS011;14791;52.392;13.092;2023-11-19T03:23:38;1.90;;;1.80;;
27303;SDS011;14791;52.392;13.092;2023-11-19T03:26:07;2.00;;;2.00;;
27303;SDS011;14791;52.392;13.092;2023-11-19T03:28:38;1.60;;;1.60;;
27303;SDS011;14791;52.392;13.092;2023-11-19T03:31:06;1.80;;;1.80;;
27303;SDS011;14791;52.392;13.092;2023-11-19T03:33:37;1.70;;;1.70;;
27303;SDS011;14791;52.392;13.092;2023-11-19T03:36:06;2.00;;;1.90;;
27303;SDS011;14791;52.392;13.092;2023-11-19T03:38:36;1.50;;;1.50;;
27303;SDS011;14791;52.392;13.092;2023-11-19T03:41:11;1.90;;;1.90;;
27303;SDS011;14791;52.392;13.092;2023-11-19T03:43:41;1.93;;;1.83;;
27303;SDS011;14791;52.392;13.092;2023-11-19T03:46:19;1.70;;;1.70;;
27303;SDS011;14791;52.392;13.092;2023-11-19T03:48:50;1.60;;;1.60;;
27303;SDS011;14791;52.392;13.092;2023-11-19T03:51:19;1.90;;;1.80;;
27303;SDS011;14791;52.392;13.092;2023-11-19T03:53:48;1.80;;;1.80;;
27303;SDS011;14791;52.392;13.092;2023-11-19T03:56:17;1.90;;;1.90;;
27303;SDS011;14791;52.392;13.092;2023-11-19T03:58:45;1.87;;;1.87;;
27303;SDS011;14791;52.392;13.092;2023-11-19T04:01:16;1.53;;;1.53;;
27303;SDS011;14791;52.392;13.092;2023-11-19T04:03:46;1.60;;;1.60;;
27303;SDS011;14791;52.392;13.092;2023-11-19T04:06:14;1.90;;;1.90;;
27303;SDS011;14791;52.392;13.092;2023-11-19T04:08:43;2.00;;;2.00;;
27303;SDS011;14791;52.392;13.092;2023-11-19T04:11:12;1.97;;;1.90;;
27303;SDS011;14791;52.392;13.092;2023-11-19T04:13:41;1.90;;;1.90;;
27303;SDS011;14791;52.392;13.092;2023-11-19T04:16:11;1.73;;;1.73;;
27303;SDS011;14791;52.392;13.092;2023-11-19T04:18:41;1.67;;;1.67;;
27303;SDS011;14791;52.392;13.092;2023-11-19T04:21:10;2.07;;;2.03;;
27303;SDS011;14791;52.392;13.092;2023-11-19T04:23:39;1.60;;;1.60;;
27303;SDS011;14791;52.392;13.092;2023-11-19T04:26:09;1.70;;;1.70;;
27303;SDS011;14791;52.392;13.092;2023-11-19T04:28:39;2.20;;;2.10;;
27303;SDS011;14791;52.392;13.092;2023-11-19T04:31:09;2.23;;;2.20;;
27303;SDS011;14791;52.392;13.092;2023-11-19T04:33:38;2.13;;;2.13;;
27303;SDS011;14791;52.392;13.092;2023-11-19T04:36:07;1.97;;;1.93;;
27303;SDS011;14791;52.392;13.092;2023-11-19T04:38:36;2.10;;;2.10;;
27303;SDS011;14791;52.392;13.092;2023-11-19T04:41:08;2.00;;;2.00;;
27303;SDS011;14791;52.392;13.092;2023-11-19T04:43:38;1.70;;;1.70;;
27303;SDS011;14791;52.392;13.092;2023-11-19T04:46:06;1.73;;;1.73;;
27303;SDS011;14791;52.392;13.092;2023-11-19T04:48:37;2.00;;;2.00;;
27303;SDS011;14791;52.392;13.092;2023-11-19T04:51:06;1.93;;;1.93;;
27303;SDS011;14791;52.392;13.092;2023-11-19T04:53:36;1.93;;;1.80;;
27303;SDS011;14791;52.392;13.092;2023-11-19T04:56:08;2.30;;;2.30;;
27303;SDS011;14791;52.392;13.092;2023-11-19T04:58:39;2.00;;;2.00;;
27303;SDS011;14791;52.392;13.092;2023-11-19T05:01:13;1.83;;;1.83;;
27303;SDS011;14791;52.392;13.092;2023-11-19T05:03:39;1.47;;;1.47;;
27303;SDS011;14791;52.392;13.092;2023-11-19T05:06:08;1.87;;;1.87;;
27303;SDS011;14791;52.392;13.092;2023-11-19T05:08:37;1.97;;;1.97;;
27303;SDS011;14791;52.392;13.092;2023-11-19T05:11:06;1.73;;;1.73;;
27303;SDS011;14791;52.392;13.092;2023-11-19T05:13:37;2.13;;;2.03;;
27303;SDS011;14791;52.392;13.092;2023-11-19T05:16:06;1.90;;;1.90;;
27303;SDS011;14791;52.392;13.092;2023-11-19T05:18:35;2.00;;;2.00;;
27303;SDS011;14791;52.392;13.092;2023-11-19T05:21:04;1.67;;;1.67;;
27303;SDS011;14791;52.392;13.092;2023-11-19T05:23:34;1.90;;;1.90;;
27303;SDS011;14791;52.392;13.092;2023-11-19T05:26:03;1.70;;;1.70;;
27303;SDS011;14791;52.392;13.092;2023-11-19T05:28:32;2.20;;;2.00;;
27303;SDS011;14791;52.392;13.092;2023-11-19T05:31:01;1.93;;;1.93;;
27303;SDS011;14791;52.392;13.092;2023-11-19T05:33:30;1.77;;;1.77;;
27303;SDS011;14791;52.392;13.092;2023-11-19T05:35:59;1.90;;;1.90;;
27303;SDS011;14791;52.392;13.092;2023-11-19T05:38:30;1.70;;;1.70;;
27303;SDS011;14791;52.392;13.092;2023-11-19T05:40:59;2.07;;;2.07;;
27303;SDS011;14791;52.392;13.092;2023-11-19T05:43:30;1.87;;;1.87;;
27303;SDS011;14791;52.392;13.092;2023-11-19T05:46:01;1.70;;;1.70;;
27303;SDS011;14791;52.392;13.092;2023-11-19T05:48:30;1.97;;;1.90;;
27303;SDS011;14791;52.392;13.092;2023-11-19T05:51:00;2.00;;;2.00;;
27303;SDS011;14791;52.392;13.092;2023-11-19T05:53:30;1.80;;;1.73;;
27303;SDS011;14791;52.392;13.092;2023-11-19T05:55:59;1.97;;;1.87;;
27303;SDS011;14791;52.392;13.092;2023-11-19T05:58:29;1.60;;;1.60;;
27303;SDS011;14791;52.392;13.092;2023-11-19T06:01:00;1.70;;;1.70;;
27303;SDS011;14791;52.392;13.092;2023-11-19T06:03:29;1.53;;;1.47;;
27303;SDS011;14791;52.392;13.092;2023-11-19T06:05:58;1.40;;;1.40;;
27303;SDS011;14791;52.392;13.092;2023-11-19T06:08:27;1.80;;;1.80;;
27303;SDS011;14791;52.392;13.092;2023-11-19T06:10:57;1.53;;;1.53;;
27303;SDS011;14791;52.392;13.092;2023-11-19T06:13:28;1.73;;;1.73;;
27303;SDS011;14791;52.392;13.092;2023-11-19T06:15:57;1.80;;;1.80;;
27303;SDS011;14791;52.392;13.092;2023-11-19T06:18:26;1.57;;;1.57;;
27303;SDS011;14791;52.392;13.092;2023-11-19T06:20:55;1.53;;;1.53;;
27303;SDS011;14791;52.392;13.092;2023-11-19T06:23:24;2.20;;;2.00;;
27303;SDS011;14791;52.392;13.092;2023-11-19T06:25:53;1.63;;;1.63;;
27303;SDS011;14791;52.392;13.092;2023-11-19T06:28:22;2.60;;;1.93;;
27303;SDS011;14791;52.392;13.092;2023-11-19T06:30:51;1.80;;;1.80;;
27303;SDS011;14791;52.392;13.092;2023-11-19T06:33:20;1.70;;;1.70;;
27303;SDS011;14791;52.392;13.092;2023-11-19T06:35:49;1.50;;;1.50;;
27303;SDS011;14791;52.392;13.092;2023-11-19T06:38:18;1.60;;;1.60;;
27303;SDS011;14791;52.392;13.092;2023-11-19T06:40:47;2.10;;;2.00;;
27303;SDS011;14791;52.392;13.092;2023-11-19T06:43:15;1.53;;;1.53;;
27303;SDS011;14791;52.392;13.092;2023-11-19T06:45:46;1.80;;;1.80;;
27303;SDS011;14791;52.392;13.092;2023-11-19T06:48:15;1.40;;;1.40;;
27303;SDS011;14791;52.392;13.092;2023-11-19T06:50:44;1.83;;;1.83;;
27303;SDS011;14791;52.392;13.092;2023-11-19T06:53:13;1.60;;;1.60;;
27303;SDS011;14791;52.392;13.092;2023-11-19T06:55:42;1.70;;;1.70;;
27303;SDS011;14791;52.392;13.092;2023-11-19T06:58:11;1.50;;;1.50;;
27303;SDS011;14791;52.392;13.092;2023-11-19T07:00:40;1.90;;;1.80;;
27303;SDS011;14791;52.392;13.092;2023-11-19T07:03:09;1.20;;;1.20;;
27303;SDS011;14791;52.392;13.092;2023-11-19T07:05:39;1.93;;;1.83;;
27303;SDS011;14791;52.392;13.092;2023-11-19T07:08:08;2.00;;;1.90;;
27303;SDS011;14791;52.392;13.092;2023-11-19T07:10:40;1.60;;;1.60;;
27303;SDS011;14791;52.392;13.092;2023-11-19T07:13:09;1.60;;;1.60;;
27303;SDS011;14791;52.392;13.092;2023-11-19T07:15:38;1.90;;;1.80;;
27303;SDS011;14791;52.392;13.092;2023-11-19T07:18:07;1.70;;;1.70;;
27303;SDS011;14791;52.392;13.092;2023-11-19T07:20:36;1.50;;;1.50;;
27303;SDS011;14791;52.392;13.092;2023-11-19T07:23:07;1.50;;;1.50;;
27303;SDS011;14791;52.392;13.092;2023-11-19T07:25:36;1.70;;;1.70;;
27303;SDS011;14791;52.392;13.092;2023-11-19T07:28:05;1.53;;;1.53;;
27303;SDS011;14791;52.392;13.092;2023-11-19T07:30:34;1.53;;;1.53;;
27303;SDS011;14791;52.392;13.092;2023-11-19T07:33:03;1.17;;;1.17;;
27303;SDS011;14791;52.392;13.092;2023-11-19T07:35:32;1.30;;;1.30;;
27303;SDS011;14791;52.392;13.092;2023-11-19T07:38:03;1.10;;;1.10;;
27303;SDS011;14791;52.392;13.092;2023-11-19T07:40:32;1.20;;;1.20;;
27303;SDS011;14791;52.392;13.092;2023-11-19T07:43:01;1.17;;;1.17;;
27303;SDS011;14791;52.392;13.092;2023-11-19T07:45:30;1.03;;;1.03;;
27303;SDS011;14791;52.392;13.092;2023-11-19T07:47:59;1.10;;;1.10;;
27303;SDS011;14791;52.392;13.092;2023-11-19T07:50:28;1.10;;;1.10;;
27303;SDS011;14791;52.392;13.092;2023-11-19T07:52:58;1.17;;;1.10;;
27303;SDS011;14791;52.392;13.092;2023-11-19T07:55:29;0.80;;;0.80;;
27303;SDS011;14791;52.392;13.092;2023-11-19T07:57:58;1.30;;;1.30;;
27303;SDS011;14791;52.392;13.092;2023-11-19T08:00:27;1.20;;;1.20;;
27303;SDS011;14791;52.392;13.092;2023-11-19T08:02:58;1.37;;;1.33;;
27303;SDS011;14791;52.392;13.092;2023-11-19T08:05:27;1.33;;;1.33;;
27303;SDS011;14791;52.392;13.092;2023-11-19T08:07:57;1.30;;;1.30;;
27303;SDS011;14791;52.392;13.092;2023-11-19T08:10:26;1.20;;;1.20;;
27303;SDS011;14791;52.392;13.092;2023-11-19T08:12:57;1.10;;;1.10;;
27303;SDS011;14791;52.392;13.092;2023-11-19T08:15:26;1.30;;;1.30;;
27303;SDS011;14791;52.392;13.092;2023-11-19T08:17:55;1.50;;;1.50;;
27303;SDS011;14791;52.392;13.092;2023-11-19T08:20:24;1.40;;;1.40;;
27303;SDS011;14791;52.392;13.092;2023-11-19T08:22:53;1.10;;;1.10;;
27303;SDS011;14791;52.392;13.092;2023-11-19T08:25:22;1.03;;;1.03;;
27303;SDS011;14791;52.392;13.092;2023-11-19T08:27:51;1.40;;;1.40;;
27303;SDS011;14791;52.392;13.092;2023-11-19T08:30:20;1.10;;;1.10;;
27303;SDS011;14791;52.392;13.092;2023-11-19T08:32:49;0.97;;;0.97;;
27303;SDS011;14791;52.392;13.092;2023-11-19T08:35:17;0.87;;;0.87;;
27303;SDS011;14791;52.392;13.092;2023-11-19T08:37:46;1.00;;;1.00;;
27303;SDS011;14791;52.392;13.092;2023-11-19T08:40:15;1.00;;;1.00;;
27303;SDS011;14791;52.392;13.092;2023-11-19T08:42:44;0.70;;;0.70;;
27303;SDS011;14791;52.392;13.092;2023-11-19T08:45:13;0.80;;;0.80;;
27303;SDS011;14791;52.392;13.092;2023-11-19T08:47:42;0.77;;;0.77;;
27303;SDS011;14791;52.392;13.092;2023-11-19T08:50:12;0.83;;;0.70;;
27303;SDS011;14791;52.392;13.092;2023-11-19T08:52:41;0.70;;;0.70;;
27303;SDS011;14791;52.392;13.092;2023-11-19T08:55:10;1.43;;;0.60;;
27303;SDS011;14791;52.392;13.092;2023-11-19T08:57:40;0.87;;;0.83;;
27303;SDS011;14791;52.392;13.092;2023-11-19T09:00:09;0.67;;;0.67;;
27303;SDS011;14791;52.392;13.092;2023-11-19T09:02:41;0.60;;;0.60;;
27303;SDS011;14791;52.392;13.092;2023-11-19T09:05:10;0.90;;;0.90;;
27303;SDS011;14791;52.392;13.092;2023-11-19T09:07:39;0.60;;;0.60;;
27303;SDS011;14791;52.392;13.092;2023-11-19T09:10:08;1.00;;;0.50;;
27303;SDS011;14791;52.392;13.092;2023-11-19T09:12:39;0.33;;;0.33;;
27303;SDS011;14791;52.392;13.092;2023-11-19T09:15:08;0.53;;;0.53;;
27303;SDS011;14791;52.392;13.092;2023-11-19T09:17:38;0.43;;;0.43;;
27303;SDS011;14791;52.392;13.092;2023-11-19T09:20:09;0.40;;;0.40;;
27303;SDS011;14791;52.392;13.092;2023-11-19T09:22:40;0.47;;;0.47;;
27303;SDS011;14791;52.392;13.092;2023-11-19T09:25:10;0.60;;;0.60;;
27303;SDS011;14791;52.392;13.092;2023-11-19T09:27:40;0.50;;;0.50;;
27303;SDS011;14791;52.392;13.092;2023-11-19T09:30:09;0.50;;;0.50;;
27303;SDS011;14791;52.392;13.092;2023-11-19T09:32:39;0.67;;;0.67;;
27303;SDS011;14791;52.392;13.092;2023-11-19T09:35:08;0.60;;;0.60;;
27303;SDS011;14791;52.392;13.092;2023-11-19T09:37:39;0.60;;;0.60;;
27303;SDS011;14791;52.392;13.092;2023-11-19T09:40:08;0.63;;;0.30;;
27303;SDS011;14791;52.392;13.092;2023-11-19T09:42:44;0.37;;;0.37;;
27303;SDS011;14791;52.392;13.092;2023-11-19T09:45:14;0.60;;;0.60;;
27303;SDS011;14791;52.392;13.092;2023-11-19T09:47:45;0.77;;;0.77;;
27303;SDS011;14791;52.392;13.092;2023-11-19T09:50:18;0.60;;;0.60;;
27303;SDS011;14791;52.392;13.092;2023-11-19T09:52:47;0.70;;;0.70;;
27303;SDS011;14791;52.392;13.092;2023-11-19T09:55:17;0.63;;;0.63;;
27303;SDS011;14791;52.392;13.092;2023-11-19T09:57:47;0.70;;;0.60;;
27303;SDS011;14791;52.392;13.092;2023-11-19T10:00:20;1.33;;;0.80;;
27303;SDS011;14791;52.392;13.092;2023-11-19T10:02:49;0.60;;;0.60;;
27303;SDS011;14791;52.392;13.092;2023-11-19T10:05:19;0.83;;;0.60;;
27303;SDS011;14791;52.392;13.092;2023-11-19T10:07:50;0.90;;;0.90;;
27303;SDS011;14791;52.392;13.092;2023-11-19T10:10:19;0.70;;;0.60;;
27303;SDS011;14791;52.392;13.092;2023-11-19T10:12:50;1.00;;;0.73;;
27303;SDS011;14791;52.392;13.092;2023-11-19T10:15:22;2.37;;;1.00;;
27303;SDS011;14791;52.392;13.092;2023-11-19T10:17:56;1.27;;;0.90;;
27303;SDS011;14791;52.392;13.092;2023-11-19T10:20:25;1.57;;;0.87;;
27303;SDS011;14791;52.392;13.092;2023-11-19T10:22:54;1.47;;;0.90;;
27303;SDS011;14791;52.392;13.092;2023-11-19T10:25:25;0.87;;;0.87;;
27303;SDS011;14791;52.392;13.092;2023-11-19T10:27:55;0.90;;;0.90;;
27303;SDS011;14791;52.392;13.092;2023-11-19T10:30:28;1.00;;;0.90;;
27303;SDS011;14791;52.392;13.092;2023-11-19T10:33:07;1.63;;;1.27;;
27303;SDS011;14791;52.392;13.092;2023-11-19T10:38:27;1.20;;;1.20;;
27303;SDS011;14791;52.392;13.092;2023-11-19T10:40:57;1.47;;;1.10;;
27303;SDS011;14791;52.392;13.092;2023-11-19T10:43:26;1.00;;;1.00;;
27303;SDS011;14791;52.392;13.092;2023-11-19T10:45:59;1.23;;;1.13;;
27303;SDS011;14791;52.392;13.092;2023-11-19T10:48:40;1.57;;;1.47;;
27303;SDS011;14791;52.392;13.092;2023-11-19T10:51:09;1.90;;;1.50;;
27303;SDS011;14791;52.392;13.092;2023-11-19T10:53:40;2.80;;;1.60;;
27303;SDS011;14791;52.392;13.092;2023-11-19T10:56:13;3.40;;;1.90;;
27303;SDS011;14791;52.392;13.092;2023-11-19T10:58:45;1.37;;;1.13;;
27303;SDS011;14791;52.392;13.092;2023-11-19T11:01:20;2.17;;;1.60;;
27303;SDS011;14791;52.392;13.092;2023-11-19T11:03:49;1.70;;;1.55;;
27303;SDS011;14791;52.392;13.092;2023-11-19T11:06:21;2.92;;;1.67;;
27303;SDS011;14791;52.392;13.092;2023-11-19T11:08:50;4.53;;;1.80;;
27303;SDS011;14791;52.392;13.092;2023-11-19T11:11:20;2.13;;;1.80;;
27303;SDS011;14791;52.392;13.092;2023-11-19T11:13:50;3.33;;;1.67;;
27303;SDS011;14791;52.392;13.092;2023-11-19T11:16:21;2.30;;;2.10;;
27303;SDS011;14791;52.392;13.092;2023-11-19T11:18:52;3.07;;;1.67;;
27303;SDS011;14791;52.392;13.092;2023-11-19T11:21:22;2.63;;;1.73;;
27303;SDS011;14791;52.392;13.092;2023-11-19T11:24:01;2.10;;;1.63;;
27303;SDS011;14791;52.392;13.092;2023-11-19T11:38:02;1.60;;;1.50;;
27303;SDS011;14791;52.392;13.092;2023-11-19T11:40:33;2.77;;;1.60;;
27303;SDS011;14791;52.392;13.092;2023-11-19T11:43:04;3.60;;;1.77;;
27303;SDS011;14791;52.392;13.092;2023-11-19T11:45:40;3.30;;;2.17;;
27303;SDS011;14791;52.392;13.092;2023-11-19T11:48:10;3.57;;;1.70;;
27303;SDS011;14791;52.392;13.092;2023-11-19T11:50:51;3.22;;;1.95;;
27303;SDS011;14791;52.392;13.092;2023-11-19T11:53:22;1.97;;;1.53;;
27303;SDS011;14791;52.392;13.092;2023-11-19T11:55:53;2.33;;;1.60;;
27303;SDS011;14791;52.392;13.092;2023-11-19T11:58:25;2.85;;;1.60;;
27303;SDS011;14791;52.392;13.092;2023-11-19T12:01:00;1.57;;;1.47;;
27303;SDS011;14791;52.392;13.092;2023-11-19T12:03:33;3.77;;;1.63;;
27303;SDS011;14791;52.392;13.092;2023-11-19T12:06:02;2.77;;;2.12;;
27303;SDS011;14791;52.392;13.092;2023-11-19T12:08:32;4.83;;;2.13;;
27303;SDS011;14791;52.392;13.092;2023-11-19T12:11:03;2.97;;;1.93;;
27303;SDS011;14791;52.392;13.092;2023-11-19T12:13:47;2.67;;;1.97;;
27303;SDS011;14791;52.392;13.092;2023-11-19T12:16:25;5.45;;;2.17;;
27303;SDS011;14791;52.392;13.092;2023-11-19T12:18:56;2.17;;;1.70;;
27303;SDS011;14791;52.392;13.092;2023-11-19T12:21:29;4.28;;;1.80;;
27303;SDS011;14791;52.392;13.092;2023-11-19T12:24:00;4.27;;;2.50;;
27303;SDS011;14791;52.392;13.092;2023-11-19T12:26:34;5.30;;;2.80;;
27303;SDS011;14791;52.392;13.092;2023-11-19T12:29:08;4.03;;;2.20;;
27303;SDS011;14791;52.392;13.092;2023-11-19T12:31:36;3.45;;;2.27;;
27303;SDS011;14791;52.392;13.092;2023-11-19T12:34:06;4.17;;;2.40;;
27303;SDS011;14791;52.392;13.092;2023-11-19T12:36:37;5.17;;;2.40;;
27303;SDS011;14791;52.392;13.092;2023-11-19T12:39:06;5.33;;;2.70;;
27303;SDS011;14791;52.392;13.092;2023-11-19T12:41:49;5.07;;;2.57;;
27303;SDS011;14791;52.392;13.092;2023-11-19T12:44:19;3.37;;;2.57;;
27303;SDS011;14791;52.392;13.092;2023-11-19T12:46:58;5.03;;;2.43;;
27303;SDS011;14791;52.392;13.092;2023-11-19T12:49:29;4.27;;;2.70;;
27303;SDS011;14791;52.392;13.092;2023-11-19T12:51:58;5.67;;;2.50;;
27303;SDS011;14791;52.392;13.092;2023-11-19T12:54:36;7.53;;;2.67;;
27303;SDS011;14791;52.392;13.092;2023-11-19T12:57:05;5.33;;;2.17;;
27303;SDS011;14791;52.392;13.092;2023-11-19T12:59:35;4.00;;;2.50;;
27303;SDS011;14791;52.392;13.092;2023-11-19T13:02:04;6.37;;;2.93;;
27303;SDS011;14791;52.392;13.092;2023-11-19T13:04:34;6.23;;;2.50;;
27303;SDS011;14791;52.392;13.092;2023-11-19T13:07:04;7.20;;;2.90;;
27303;SDS011;14791;52.392;13.092;2023-11-19T13:09:34;5.53;;;2.80;;
27303;SDS011;14791;52.392;13.092;2023-11-19T13:12:12;9.73;;;2.90;;
27303;SDS011;14791;52.392;13.092;2023-11-19T13:14:43;6.00;;;2.67;;
27303;SDS011;14791;52.392;13.092;2023-11-19T13:17:14;10.58;;;3.27;;
27303;SDS011;14791;52.392;13.092;2023-11-19T13:19:43;6.40;;;3.07;;
27303;SDS011;14791;52.392;13.092;2023-11-19T13:22:16;5.13;;;2.77;;
27303;SDS011;14791;52.392;13.092;2023-11-19T13:24:45;4.23;;;2.83;;
27303;SDS011;14791;52.392;13.092;2023-11-19T13:27:14;6.07;;;2.83;;
27303;SDS011;14791;52.392;13.092;2023-11-19T13:29:43;5.03;;;2.87;;
27303;SDS011;14791;52.392;13.092;2023-11-19T13:32:12;6.20;;;2.67;;
27303;SDS011;14791;52.392;13.092;2023-11-19T13:34:43;6.55;;;2.90;;
27303;SDS011;14791;52.392;13.092;2023-11-19T13:37:11;3.95;;;2.27;;
27303;SDS011;14791;52.392;13.092;2023-11-19T13:39:43;5.83;;;2.57;;
27303;SDS011;14791;52.392;13.092;2023-11-19T13:42:12;6.67;;;2.98;;
27303;SDS011;14791;52.392;13.092;2023-11-19T13:44:41;5.63;;;2.70;;
27303;SDS011;14791;52.392;13.092;2023-11-19T13:47:10;6.27;;;3.00;;
27303;SDS011;14791;52.392;13.092;2023-11-19T13:49:43;5.40;;;3.00;;
27303;SDS011;14791;52.392;13.092;2023-11-19T13:52:12;5.93;;;2.90;;
27303;SDS011;14791;52.392;13.092;2023-11-19T13:54:41;4.83;;;3.00;;
27303;SDS011;14791;52.392;13.092;2023-11-19T13:57:10;5.33;;;3.07;;
27303;SDS011;14791;52.392;13.092;2023-11-19T13:59:39;4.07;;;2.50;;
27303;SDS011;14791;52.392;13.092;2023-11-19T14:02:09;7.03;;;2.97;;
27303;SDS011;14791;52.392;13.092;2023-11-19T14:04:37;10.47;;;2.90;;
27303;SDS011;14791;52.392;13.092;2023-11-19T14:07:08;5.45;;;2.90;;
27303;SDS011;14791;52.392;13.092;2023-11-19T14:09:37;7.43;;;3.20;;
27303;SDS011;14791;52.392;13.092;2023-11-19T14:12:06;6.57;;;2.80;;
27303;SDS011;14791;52.392;13.092;2023-11-19T14:14:36;8.57;;;2.97;;
27303;SDS011;14791;52.392;13.092;2023-11-19T14:17:06;6.90;;;3.40;;
27303;SDS011;14791;52.392;13.092;2023-11-19T14:19:35;8.63;;;3.07;;
27303;SDS011;14791;52.392;13.092;2023-11-19T14:22:06;6.80;;;3.43;;
27303;SDS011;14791;52.392;13.092;2023-11-19T14:24:35;5.87;;;3.73;;
27303;SDS011;14791;52.392;13.092;2023-11-19T14:27:06;4.80;;;2.87;;
27303;SDS011;14791;52.392;13.092;2023-11-19T14:29:34;7.50;;;2.83;;
27303;SDS011;14791;52.392;13.092;2023-11-19T14:32:04;6.80;;;2.67;;
27303;SDS011;14791;52.392;13.092;2023-11-19T14:34:33;5.37;;;2.90;;
27303;SDS011;14791;52.392;13.092;2023-11-19T14:37:02;8.33;;;3.17;;
27303;SDS011;14791;52.392;13.092;2023-11-19T14:39:31;10.00;;;3.80;;
27303;SDS011;14791;52.392;13.092;2023-11-19T14:42:01;6.43;;;3.37;;
27303;SDS011;14791;52.392;13.092;2023-11-19T14:44:33;6.60;;;3.20;;
27303;SDS011;14791;52.392;13.092;2023-11-19T14:47:02;7.73;;;3.67;;
27303;SDS011;14791;52.392;13.092;2023-11-19T14:49:32;6.73;;;3.97;;
27303;SDS011;14791;52.392;13.092;2023-11-19T14:52:05;8.93;;;3.50;;
27303;SDS011;14791;52.392;13.092;2023-11-19T14:54:35;4.47;;;2.47;;
27303;SDS011;14791;52.392;13.092;2023-11-19T14:57:05;8.63;;;3.00;;
27303;SDS011;14791;52.392;13.092;2023-11-19T14:59:37;6.33;;;2.90;;
27303;SDS011;14791;52.392;13.092;2023-11-19T15:02:06;5.23;;;2.63;;
27303;SDS011;14791;52.392;13.092;2023-11-19T15:04:35;5.60;;;2.73;;
27303;SDS011;14791;52.392;13.092;2023-11-19T15:07:04;6.13;;;3.03;;
27303;SDS011;14791;52.392;13.092;2023-11-19T15:09:34;4.10;;;2.53;;